sensor_id;sensor_type;location;lat;lon;timestamp;P1;durP1;ratioP1;P2;durP2;ratioP2
7057;SDS011;3570;43.080;25.628;2022-11-20T00:02:08;6.43;;;3.03;;
7057;SDS011;3570;43.080;25.628;2022-11-20T00:04:52;8.93;;;3.33;;
7057;SDS011;3570;43.080;25.628;2022-11-20T00:07:36;7.23;;;4.07;;
7057;SDS011;3570;43.080;25.628;2022-11-20T00:10:20;8.93;;;3.20;;
7057;SDS011;3570;43.080;25.628;2022-11-20T00:13:04;8.03;;;3.47;;
7057;SDS011;3570;43.080;25.628;2022-11-20T00:15:48;4.23;;;2.60;;
7057;SDS011;3570;43.080;25.628;2022-11-20T00:18:39;10.03;;;3.43;;
7057;SDS011;3570;43.080;25.628;2022-11-20T00:21:26;8.53;;;3.50;;
7057;SDS011;3570;43.080;25.628;2022-11-20T00:24:11;5.60;;;3.40;;
7057;SDS011;3570;43.080;25.628;2022-11-20T00:26:55;7.27;;;3.30;;
7057;SDS011;3570;43.080;25.628;2022-11-20T00:29:40;5.27;;;3.30;;
7057;SDS011;3570;43.080;25.628;2022-11-20T00:32:23;8.30;;;3.23;;
7057;SDS011;3570;43.080;25.628;2022-11-20T00:35:08;8.57;;;3.00;;
7057;SDS011;3570;43.080;25.628;2022-11-20T00:37:52;14.30;;;3.57;;
7057;SDS011;3570;43.080;25.628;2022-11-20T00:40:36;6.97;;;3.50;;
7057;SDS011;3570;43.080;25.628;2022-11-20T00:43:20;8.03;;;3.60;;
7057;SDS011;3570;43.080;25.628;2022-11-20T00:46:05;7.40;;;3.90;;
7057;SDS011;3570;43.080;25.628;2022-11-20T00:48:51;8.03;;;3.47;;
7057;SDS011;3570;43.080;25.628;2022-11-20T00:51:35;7.53;;;3.37;;
7057;SDS011;3570;43.080;25.628;2022-11-20T00:54:19;5.37;;;3.40;;
7057;SDS011;3570;43.080;25.628;2022-11-20T00:57:03;5.07;;;2.73;;
7057;SDS011;3570;43.080;25.628;2022-11-20T00:59:47;5.23;;;2.87;;
7057;SDS011;3570;43.080;25.628;2022-11-20T01:02:31;6.63;;;3.07;;
7057;SDS011;3570;43.080;25.628;2022-11-20T01:05:15;6.37;;;3.00;;
7057;SDS011;3570;43.080;25.628;2022-11-20T01:07:59;7.67;;;3.60;;
7057;SDS011;3570;43.080;25.628;2022-11-20T01:10:42;3.83;;;2.57;;
7057;SDS011;3570;43.080;25.628;2022-11-20T01:13:27;4.80;;;2.30;;
7057;SDS011;3570;43.080;25.628;2022-11-20T01:16:27;6.37;;;3.70;;
7057;SDS011;3570;43.080;25.628;2022-11-20T01:19:14;5.33;;;3.57;;
7057;SDS011;3570;43.080;25.628;2022-11-20T01:22:00;9.30;;;3.70;;
7057;SDS011;3570;43.080;25.628;2022-11-20T01:24:44;3.23;;;2.30;;
7057;SDS011;3570;43.080;25.628;2022-11-20T01:27:28;7.97;;;3.27;;
7057;SDS011;3570;43.080;25.628;2022-11-20T01:30:12;9.23;;;2.97;;
7057;SDS011;3570;43.080;25.628;2022-11-20T01:32:57;9.10;;;3.73;;
7057;SDS011;3570;43.080;25.628;2022-11-20T01:35:41;10.23;;;3.50;;
7057;SDS011;3570;43.080;25.628;2022-11-20T01:38:25;7.07;;;3.00;;
7057;SDS011;3570;43.080;25.628;2022-11-20T01:41:09;3.27;;;2.97;;
7057;SDS011;3570;43.080;25.628;2022-11-20T01:43:54;6.13;;;3.37;;
7057;SDS011;3570;43.080;25.628;2022-11-20T01:46:38;5.40;;;2.80;;
7057;SDS011;3570;43.080;25.628;2022-11-20T01:52:38;7.63;;;2.87;;
7057;SDS011;3570;43.080;25.628;2022-11-20T01:55:28;6.70;;;3.30;;
7057;SDS011;3570;43.080;25.628;2022-11-20T01:58:16;5.87;;;2.70;;
7057;SDS011;3570;43.080;25.628;2022-11-20T02:01:08;8.00;;;3.30;;
7057;SDS011;3570;43.080;25.628;2022-11-20T02:03:53;7.27;;;3.10;;
7057;SDS011;3570;43.080;25.628;2022-11-20T02:06:46;4.70;;;2.10;;
7057;SDS011;3570;43.080;25.628;2022-11-20T02:09:33;4.57;;;2.80;;
7057;SDS011;3570;43.080;25.628;2022-11-20T02:12:17;11.00;;;3.13;;
7057;SDS011;3570;43.080;25.628;2022-11-20T02:15:20;7.47;;;3.30;;
7057;SDS011;3570;43.080;25.628;2022-11-20T02:18:04;10.77;;;2.93;;
7057;SDS011;3570;43.080;25.628;2022-11-20T02:24:17;8.90;;;3.10;;
7057;SDS011;3570;43.080;25.628;2022-11-20T02:27:09;6.07;;;2.97;;
7057;SDS011;3570;43.080;25.628;2022-11-20T02:30:03;8.57;;;3.03;;
7057;SDS011;3570;43.080;25.628;2022-11-20T02:32:50;4.50;;;3.00;;
7057;SDS011;3570;43.080;25.628;2022-11-20T02:38:18;7.93;;;3.40;;
7057;SDS011;3570;43.080;25.628;2022-11-20T02:41:03;4.00;;;2.57;;
7057;SDS011;3570;43.080;25.628;2022-11-20T02:43:47;5.17;;;2.90;;
7057;SDS011;3570;43.080;25.628;2022-11-20T02:46:31;7.47;;;2.87;;
7057;SDS011;3570;43.080;25.628;2022-11-20T02:49:16;3.97;;;2.70;;
7057;SDS011;3570;43.080;25.628;2022-11-20T02:52:00;7.47;;;2.60;;
7057;SDS011;3570;43.080;25.628;2022-11-20T02:54:44;4.03;;;2.60;;
7057;SDS011;3570;43.080;25.628;2022-11-20T02:57:28;4.13;;;2.20;;
7057;SDS011;3570;43.080;25.628;2022-11-20T03:00:12;2.63;;;2.00;;
7057;SDS011;3570;43.080;25.628;2022-11-20T03:02:56;5.93;;;2.43;;
7057;SDS011;3570;43.080;25.628;2022-11-20T03:05:40;4.47;;;3.00;;
7057;SDS011;3570;43.080;25.628;2022-11-20T03:08:24;6.33;;;2.33;;
7057;SDS011;3570;43.080;25.628;2022-11-20T03:11:08;3.83;;;1.80;;
7057;SDS011;3570;43.080;25.628;2022-11-20T03:13:53;5.33;;;2.30;;
7057;SDS011;3570;43.080;25.628;2022-11-20T03:16:37;6.23;;;2.73;;
7057;SDS011;3570;43.080;25.628;2022-11-20T03:19:20;4.47;;;2.60;;
7057;SDS011;3570;43.080;25.628;2022-11-20T03:22:05;6.30;;;2.57;;
7057;SDS011;3570;43.080;25.628;2022-11-20T03:24:49;8.20;;;2.70;;
7057;SDS011;3570;43.080;25.628;2022-11-20T03:27:36;4.70;;;2.70;;
7057;SDS011;3570;43.080;25.628;2022-11-20T03:30:20;11.37;;;2.70;;
7057;SDS011;3570;43.080;25.628;2022-11-20T03:33:04;8.50;;;2.77;;
7057;SDS011;3570;43.080;25.628;2022-11-20T03:35:47;3.37;;;2.33;;
7057;SDS011;3570;43.080;25.628;2022-11-20T03:38:31;4.03;;;2.80;;
7057;SDS011;3570;43.080;25.628;2022-11-20T03:41:18;5.53;;;2.77;;
7057;SDS011;3570;43.080;25.628;2022-11-20T03:44:10;9.73;;;2.63;;
7057;SDS011;3570;43.080;25.628;2022-11-20T03:46:55;9.50;;;2.70;;
7057;SDS011;3570;43.080;25.628;2022-11-20T03:49:39;5.90;;;2.43;;
7057;SDS011;3570;43.080;25.628;2022-11-20T03:52:23;6.03;;;2.57;;
7057;SDS011;3570;43.080;25.628;2022-11-20T03:55:07;5.93;;;2.70;;
7057;SDS011;3570;43.080;25.628;2022-11-20T03:57:51;3.70;;;2.13;;
7057;SDS011;3570;43.080;25.628;2022-11-20T04:00:35;5.60;;;2.07;;
7057;SDS011;3570;43.080;25.628;2022-11-20T04:03:19;5.50;;;2.23;;
7057;SDS011;3570;43.080;25.628;2022-11-20T04:06:04;4.43;;;1.63;;
7057;SDS011;3570;43.080;25.628;2022-11-20T04:08:50;7.47;;;2.83;;
7057;SDS011;3570;43.080;25.628;2022-11-20T04:11:35;3.13;;;2.10;;
7057;SDS011;3570;43.080;25.628;2022-11-20T04:14:21;8.83;;;2.63;;
7057;SDS011;3570;43.080;25.628;2022-11-20T04:17:05;2.53;;;1.60;;
7057;SDS011;3570;43.080;25.628;2022-11-20T04:19:49;4.90;;;2.47;;
7057;SDS011;3570;43.080;25.628;2022-11-20T04:22:33;6.73;;;2.43;;
7057;SDS011;3570;43.080;25.628;2022-11-20T04:25:17;8.90;;;2.23;;
7057;SDS011;3570;43.080;25.628;2022-11-20T04:28:01;7.80;;;2.67;;
7057;SDS011;3570;43.080;25.628;2022-11-20T04:30:45;8.37;;;2.13;;
7057;SDS011;3570;43.080;25.628;2022-11-20T04:33:29;6.07;;;2.67;;
7057;SDS011;3570;43.080;25.628;2022-11-20T04:36:23;5.17;;;2.40;;
7057;SDS011;3570;43.080;25.628;2022-11-20T04:39:11;3.10;;;2.07;;
7057;SDS011;3570;43.080;25.628;2022-11-20T04:41:56;4.13;;;2.33;;
7057;SDS011;3570;43.080;25.628;2022-11-20T04:44:59;5.33;;;2.30;;
7057;SDS011;3570;43.080;25.628;2022-11-20T04:47:43;5.13;;;2.30;;
7057;SDS011;3570;43.080;25.628;2022-11-20T04:50:27;8.00;;;2.93;;
7057;SDS011;3570;43.080;25.628;2022-11-20T04:53:11;6.53;;;3.00;;
7057;SDS011;3570;43.080;25.628;2022-11-20T04:56:00;5.23;;;2.60;;
7057;SDS011;3570;43.080;25.628;2022-11-20T04:58:45;4.33;;;2.20;;
7057;SDS011;3570;43.080;25.628;2022-11-20T05:01:29;5.93;;;2.60;;
7057;SDS011;3570;43.080;25.628;2022-11-20T05:04:13;5.53;;;3.17;;
7057;SDS011;3570;43.080;25.628;2022-11-20T05:06:57;6.47;;;2.50;;
7057;SDS011;3570;43.080;25.628;2022-11-20T05:09:41;3.13;;;2.10;;
7057;SDS011;3570;43.080;25.628;2022-11-20T05:12:25;9.10;;;2.53;;
7057;SDS011;3570;43.080;25.628;2022-11-20T05:15:09;8.83;;;2.80;;
7057;SDS011;3570;43.080;25.628;2022-11-20T05:17:53;7.30;;;2.43;;
7057;SDS011;3570;43.080;25.628;2022-11-20T05:20:37;5.20;;;2.60;;
7057;SDS011;3570;43.080;25.628;2022-11-20T05:23:21;5.30;;;2.47;;
7057;SDS011;3570;43.080;25.628;2022-11-20T05:26:06;6.53;;;2.07;;
7057;SDS011;3570;43.080;25.628;2022-11-20T05:28:51;5.53;;;2.00;;
7057;SDS011;3570;43.080;25.628;2022-11-20T05:31:36;3.90;;;2.13;;
7057;SDS011;3570;43.080;25.628;2022-11-20T05:34:20;3.57;;;2.13;;
7057;SDS011;3570;43.080;25.628;2022-11-20T05:37:04;4.67;;;2.23;;
7057;SDS011;3570;43.080;25.628;2022-11-20T05:39:48;4.37;;;2.33;;
7057;SDS011;3570;43.080;25.628;2022-11-20T05:42:32;5.73;;;2.20;;
7057;SDS011;3570;43.080;25.628;2022-11-20T05:45:16;7.90;;;2.20;;
7057;SDS011;3570;43.080;25.628;2022-11-20T05:48:00;4.40;;;2.40;;
7057;SDS011;3570;43.080;25.628;2022-11-20T05:50:45;5.53;;;2.53;;
7057;SDS011;3570;43.080;25.628;2022-11-20T05:53:28;7.40;;;2.70;;
7057;SDS011;3570;43.080;25.628;2022-11-20T05:56:13;5.80;;;2.40;;
7057;SDS011;3570;43.080;25.628;2022-11-20T05:59:02;2.60;;;2.03;;
7057;SDS011;3570;43.080;25.628;2022-11-20T06:01:46;5.83;;;2.10;;
7057;SDS011;3570;43.080;25.628;2022-11-20T06:04:30;3.00;;;2.17;;
7057;SDS011;3570;43.080;25.628;2022-11-20T06:07:14;7.23;;;2.10;;
7057;SDS011;3570;43.080;25.628;2022-11-20T06:09:59;7.40;;;2.67;;
7057;SDS011;3570;43.080;25.628;2022-11-20T06:12:43;6.97;;;2.63;;
7057;SDS011;3570;43.080;25.628;2022-11-20T06:15:27;9.13;;;3.40;;
7057;SDS011;3570;43.080;25.628;2022-11-20T06:18:11;7.57;;;3.50;;
7057;SDS011;3570;43.080;25.628;2022-11-20T06:21:08;6.90;;;4.07;;
7057;SDS011;3570;43.080;25.628;2022-11-20T06:23:56;5.90;;;4.90;;
7057;SDS011;3570;43.080;25.628;2022-11-20T06:26:40;9.53;;;4.70;;
7057;SDS011;3570;43.080;25.628;2022-11-20T06:29:25;11.17;;;5.63;;
7057;SDS011;3570;43.080;25.628;2022-11-20T06:32:09;9.40;;;6.77;;
7057;SDS011;3570;43.080;25.628;2022-11-20T06:34:53;12.20;;;5.70;;
7057;SDS011;3570;43.080;25.628;2022-11-20T06:37:37;9.53;;;4.40;;
7057;SDS011;3570;43.080;25.628;2022-11-20T06:40:20;10.20;;;6.03;;
7057;SDS011;3570;43.080;25.628;2022-11-20T06:43:05;9.63;;;4.30;;
7057;SDS011;3570;43.080;25.628;2022-11-20T06:45:55;9.30;;;3.93;;
7057;SDS011;3570;43.080;25.628;2022-11-20T06:48:40;5.87;;;4.20;;
7057;SDS011;3570;43.080;25.628;2022-11-20T06:51:24;7.13;;;4.83;;
7057;SDS011;3570;43.080;25.628;2022-11-20T06:54:08;9.80;;;5.63;;
7057;SDS011;3570;43.080;25.628;2022-11-20T06:56:52;9.00;;;6.00;;
7057;SDS011;3570;43.080;25.628;2022-11-20T06:59:36;9.50;;;6.80;;
7057;SDS011;3570;43.080;25.628;2022-11-20T07:02:20;12.43;;;7.53;;
7057;SDS011;3570;43.080;25.628;2022-11-20T07:05:04;11.27;;;7.37;;
7057;SDS011;3570;43.080;25.628;2022-11-20T07:07:48;14.43;;;9.07;;
7057;SDS011;3570;43.080;25.628;2022-11-20T07:10:32;18.10;;;9.57;;
7057;SDS011;3570;43.080;25.628;2022-11-20T07:13:16;19.83;;;11.43;;
7057;SDS011;3570;43.080;25.628;2022-11-20T07:16:02;21.20;;;11.50;;
7057;SDS011;3570;43.080;25.628;2022-11-20T07:18:48;27.60;;;15.27;;
7057;SDS011;3570;43.080;25.628;2022-11-20T07:21:32;23.37;;;13.00;;
7057;SDS011;3570;43.080;25.628;2022-11-20T07:24:16;20.77;;;11.87;;
7057;SDS011;3570;43.080;25.628;2022-11-20T07:27:01;22.50;;;12.00;;
7057;SDS011;3570;43.080;25.628;2022-11-20T07:29:45;24.80;;;13.07;;
7057;SDS011;3570;43.080;25.628;2022-11-20T07:32:29;25.07;;;12.37;;
7057;SDS011;3570;43.080;25.628;2022-11-20T07:35:13;23.17;;;11.13;;
7057;SDS011;3570;43.080;25.628;2022-11-20T07:37:57;25.27;;;12.90;;
7057;SDS011;3570;43.080;25.628;2022-11-20T07:40:41;25.27;;;12.33;;
7057;SDS011;3570;43.080;25.628;2022-11-20T07:43:26;47.63;;;19.23;;
7057;SDS011;3570;43.080;25.628;2022-11-20T07:46:10;26.47;;;13.70;;
7057;SDS011;3570;43.080;25.628;2022-11-20T07:48:54;23.60;;;11.93;;
7057;SDS011;3570;43.080;25.628;2022-11-20T07:51:38;30.17;;;12.27;;
7057;SDS011;3570;43.080;25.628;2022-11-20T07:54:22;27.57;;;12.70;;
7057;SDS011;3570;43.080;25.628;2022-11-20T07:57:07;23.33;;;12.00;;
7057;SDS011;3570;43.080;25.628;2022-11-20T07:59:51;27.57;;;12.20;;
7057;SDS011;3570;43.080;25.628;2022-11-20T08:02:39;24.73;;;12.13;;
7057;SDS011;3570;43.080;25.628;2022-11-20T08:05:24;27.10;;;12.67;;
7057;SDS011;3570;43.080;25.628;2022-11-20T08:08:08;21.80;;;12.13;;
7057;SDS011;3570;43.080;25.628;2022-11-20T08:10:52;28.97;;;13.53;;
7057;SDS011;3570;43.080;25.628;2022-11-20T08:13:36;26.63;;;13.27;;
7057;SDS011;3570;43.080;25.628;2022-11-20T08:16:40;24.13;;;12.13;;
7057;SDS011;3570;43.080;25.628;2022-11-20T08:19:27;27.80;;;11.87;;
7057;SDS011;3570;43.080;25.628;2022-11-20T08:22:11;24.37;;;11.93;;
7057;SDS011;3570;43.080;25.628;2022-11-20T08:24:55;26.77;;;13.53;;
7057;SDS011;3570;43.080;25.628;2022-11-20T08:27:39;26.33;;;12.77;;
7057;SDS011;3570;43.080;25.628;2022-11-20T08:30:23;27.33;;;13.33;;
7057;SDS011;3570;43.080;25.628;2022-11-20T08:33:08;28.30;;;13.30;;
7057;SDS011;3570;43.080;25.628;2022-11-20T08:35:53;26.37;;;12.97;;
7057;SDS011;3570;43.080;25.628;2022-11-20T08:38:37;27.97;;;13.73;;
7057;SDS011;3570;43.080;25.628;2022-11-20T08:41:21;27.43;;;13.63;;
7057;SDS011;3570;43.080;25.628;2022-11-20T08:44:10;26.97;;;12.07;;
7057;SDS011;3570;43.080;25.628;2022-11-20T08:46:54;24.10;;;12.97;;
7057;SDS011;3570;43.080;25.628;2022-11-20T08:49:38;25.53;;;14.40;;
7057;SDS011;3570;43.080;25.628;2022-11-20T08:52:22;22.73;;;12.67;;
7057;SDS011;3570;43.080;25.628;2022-11-20T08:55:06;24.83;;;13.40;;
7057;SDS011;3570;43.080;25.628;2022-11-20T08:57:50;23.30;;;13.60;;
7057;SDS011;3570;43.080;25.628;2022-11-20T09:00:34;22.93;;;12.43;;
7057;SDS011;3570;43.080;25.628;2022-11-20T09:03:18;22.73;;;13.13;;
7057;SDS011;3570;43.080;25.628;2022-11-20T09:06:04;28.53;;;13.60;;
7057;SDS011;3570;43.080;25.628;2022-11-20T09:08:53;26.30;;;12.87;;
7057;SDS011;3570;43.080;25.628;2022-11-20T09:11:37;30.80;;;14.83;;
7057;SDS011;3570;43.080;25.628;2022-11-20T09:14:21;25.50;;;13.43;;
7057;SDS011;3570;43.080;25.628;2022-11-20T09:17:09;29.43;;;14.03;;
7057;SDS011;3570;43.080;25.628;2022-11-20T09:19:56;26.60;;;14.07;;
7057;SDS011;3570;43.080;25.628;2022-11-20T09:22:40;30.43;;;14.83;;
7057;SDS011;3570;43.080;25.628;2022-11-20T09:25:24;30.50;;;14.47;;
7057;SDS011;3570;43.080;25.628;2022-11-20T09:28:08;24.67;;;13.33;;
7057;SDS011;3570;43.080;25.628;2022-11-20T09:30:53;26.43;;;13.70;;
7057;SDS011;3570;43.080;25.628;2022-11-20T09:33:37;28.93;;;14.03;;
7057;SDS011;3570;43.080;25.628;2022-11-20T09:36:21;29.20;;;15.03;;
7057;SDS011;3570;43.080;25.628;2022-11-20T09:39:05;31.17;;;15.03;;
7057;SDS011;3570;43.080;25.628;2022-11-20T09:41:54;30.43;;;14.50;;
7057;SDS011;3570;43.080;25.628;2022-11-20T09:56:19;29.67;;;14.07;;
7057;SDS011;3570;43.080;25.628;2022-11-20T09:59:04;24.93;;;13.53;;
7057;SDS011;3570;43.080;25.628;2022-11-20T10:01:51;25.80;;;13.70;;
7057;SDS011;3570;43.080;25.628;2022-11-20T10:04:37;22.27;;;13.47;;
7057;SDS011;3570;43.080;25.628;2022-11-20T10:07:30;27.77;;;14.17;;
7057;SDS011;3570;43.080;25.628;2022-11-20T10:16:40;30.47;;;14.93;;
7057;SDS011;3570;43.080;25.628;2022-11-20T10:19:33;28.57;;;14.17;;
7057;SDS011;3570;43.080;25.628;2022-11-20T10:22:44;25.60;;;13.80;;
7057;SDS011;3570;43.080;25.628;2022-11-20T10:25:46;22.83;;;12.63;;
7057;SDS011;3570;43.080;25.628;2022-11-20T10:34:31;23.83;;;12.83;;
7057;SDS011;3570;43.080;25.628;2022-11-20T10:37:27;24.03;;;12.90;;
7057;SDS011;3570;43.080;25.628;2022-11-20T10:40:18;25.33;;;12.90;;
7057;SDS011;3570;43.080;25.628;2022-11-20T10:43:24;25.17;;;13.60;;
7057;SDS011;3570;43.080;25.628;2022-11-20T10:46:16;22.63;;;12.13;;
7057;SDS011;3570;43.080;25.628;2022-11-20T10:49:04;24.40;;;12.30;;
7057;SDS011;3570;43.080;25.628;2022-11-20T10:58:07;21.57;;;12.00;;
7057;SDS011;3570;43.080;25.628;2022-11-20T11:01:19;22.17;;;12.30;;
7057;SDS011;3570;43.080;25.628;2022-11-20T11:04:23;27.60;;;13.30;;
7057;SDS011;3570;43.080;25.628;2022-11-20T11:07:37;23.13;;;11.73;;
7057;SDS011;3570;43.080;25.628;2022-11-20T11:13:32;24.83;;;12.80;;
7057;SDS011;3570;43.080;25.628;2022-11-20T11:16:20;21.43;;;11.77;;
7057;SDS011;3570;43.080;25.628;2022-11-20T11:19:12;23.07;;;12.13;;
7057;SDS011;3570;43.080;25.628;2022-11-20T11:21:57;23.20;;;12.23;;
7057;SDS011;3570;43.080;25.628;2022-11-20T11:24:43;23.90;;;13.10;;
7057;SDS011;3570;43.080;25.628;2022-11-20T11:27:35;23.33;;;13.07;;
7057;SDS011;3570;43.080;25.628;2022-11-20T11:30:40;18.83;;;11.63;;
7057;SDS011;3570;43.080;25.628;2022-11-20T11:33:27;22.13;;;11.80;;
7057;SDS011;3570;43.080;25.628;2022-11-20T11:36:20;21.47;;;11.83;;
7057;SDS011;3570;43.080;25.628;2022-11-20T11:39:13;19.47;;;10.83;;
7057;SDS011;3570;43.080;25.628;2022-11-20T11:41:59;22.93;;;13.40;;
7057;SDS011;3570;43.080;25.628;2022-11-20T11:44:45;23.70;;;12.20;;
7057;SDS011;3570;43.080;25.628;2022-11-20T11:47:51;18.80;;;11.00;;
7057;SDS011;3570;43.080;25.628;2022-11-20T11:50:47;17.67;;;10.33;;
7057;SDS011;3570;43.080;25.628;2022-11-20T11:53:33;21.47;;;11.07;;
7057;SDS011;3570;43.080;25.628;2022-11-20T11:56:24;23.27;;;11.80;;
7057;SDS011;3570;43.080;25.628;2022-11-20T11:59:12;22.07;;;11.67;;
7057;SDS011;3570;43.080;25.628;2022-11-20T12:02:11;24.90;;;12.23;;
7057;SDS011;3570;43.080;25.628;2022-11-20T12:08:31;25.70;;;14.03;;
7057;SDS011;3570;43.080;25.628;2022-11-20T12:11:30;26.27;;;13.00;;
7057;SDS011;3570;43.080;25.628;2022-11-20T12:17:20;33.60;;;15.77;;
7057;SDS011;3570;43.080;25.628;2022-11-20T12:20:10;29.20;;;15.50;;
7057;SDS011;3570;43.080;25.628;2022-11-20T12:23:22;29.23;;;15.00;;
7057;SDS011;3570;43.080;25.628;2022-11-20T12:26:24;27.30;;;15.03;;
7057;SDS011;3570;43.080;25.628;2022-11-20T12:42:13;27.60;;;12.83;;
7057;SDS011;3570;43.080;25.628;2022-11-20T12:45:35;24.80;;;13.50;;
7057;SDS011;3570;43.080;25.628;2022-11-20T12:57:24;30.23;;;13.37;;
7057;SDS011;3570;43.080;25.628;2022-11-20T13:00:20;27.73;;;14.57;;
7057;SDS011;3570;43.080;25.628;2022-11-20T13:08:55;26.53;;;15.33;;
7057;SDS011;3570;43.080;25.628;2022-11-20T13:11:48;27.97;;;14.50;;
7057;SDS011;3570;43.080;25.628;2022-11-20T13:18:04;28.97;;;15.50;;
7057;SDS011;3570;43.080;25.628;2022-11-20T13:20:52;28.70;;;14.33;;
7057;SDS011;3570;43.080;25.628;2022-11-20T13:23:35;25.53;;;14.70;;
7057;SDS011;3570;43.080;25.628;2022-11-20T13:26:20;28.47;;;14.37;;
7057;SDS011;3570;43.080;25.628;2022-11-20T13:29:16;33.03;;;15.40;;
7057;SDS011;3570;43.080;25.628;2022-11-20T13:32:06;30.23;;;15.07;;
7057;SDS011;3570;43.080;25.628;2022-11-20T13:35:01;32.10;;;14.23;;
7057;SDS011;3570;43.080;25.628;2022-11-20T13:37:48;31.13;;;16.00;;
7057;SDS011;3570;43.080;25.628;2022-11-20T13:43:42;34.70;;;16.97;;
7057;SDS011;3570;43.080;25.628;2022-11-20T13:46:42;31.20;;;15.73;;
7057;SDS011;3570;43.080;25.628;2022-11-20T13:49:37;29.90;;;16.57;;
7057;SDS011;3570;43.080;25.628;2022-11-20T13:52:45;27.37;;;15.37;;
7057;SDS011;3570;43.080;25.628;2022-11-20T14:02:40;33.83;;;16.87;;
7057;SDS011;3570;43.080;25.628;2022-11-20T14:05:25;29.83;;;14.80;;
7057;SDS011;3570;43.080;25.628;2022-11-20T14:08:13;27.53;;;13.83;;
7057;SDS011;3570;43.080;25.628;2022-11-20T14:11:05;30.03;;;15.53;;
7057;SDS011;3570;43.080;25.628;2022-11-20T14:14:00;29.97;;;17.00;;
7057;SDS011;3570;43.080;25.628;2022-11-20T14:16:47;34.43;;;17.77;;
7057;SDS011;3570;43.080;25.628;2022-11-20T14:19:31;34.13;;;17.03;;
7057;SDS011;3570;43.080;25.628;2022-11-20T14:22:17;32.57;;;16.17;;
7057;SDS011;3570;43.080;25.628;2022-11-20T14:25:22;29.10;;;15.30;;
7057;SDS011;3570;43.080;25.628;2022-11-20T14:28:11;31.07;;;15.20;;
7057;SDS011;3570;43.080;25.628;2022-11-20T14:31:18;29.90;;;15.27;;
7057;SDS011;3570;43.080;25.628;2022-11-20T14:34:10;25.37;;;13.50;;
7057;SDS011;3570;43.080;25.628;2022-11-20T14:36:59;44.00;;;23.60;;
7057;SDS011;3570;43.080;25.628;2022-11-20T14:39:50;44.70;;;23.87;;
7057;SDS011;3570;43.080;25.628;2022-11-20T14:42:35;39.13;;;20.27;;
7057;SDS011;3570;43.080;25.628;2022-11-20T14:45:21;32.30;;;16.07;;
7057;SDS011;3570;43.080;25.628;2022-11-20T14:48:08;26.20;;;12.60;;
7057;SDS011;3570;43.080;25.628;2022-11-20T14:50:54;32.03;;;14.53;;
7057;SDS011;3570;43.080;25.628;2022-11-20T14:53:38;18.27;;;9.73;;
7057;SDS011;3570;43.080;25.628;2022-11-20T14:56:23;15.73;;;9.40;;
7057;SDS011;3570;43.080;25.628;2022-11-20T14:59:08;13.60;;;7.47;;
7057;SDS011;3570;43.080;25.628;2022-11-20T15:04:58;10.10;;;6.17;;
7057;SDS011;3570;43.080;25.628;2022-11-20T15:07:46;11.73;;;6.13;;
7057;SDS011;3570;43.080;25.628;2022-11-20T15:10:32;11.10;;;5.93;;
7057;SDS011;3570;43.080;25.628;2022-11-20T15:13:29;14.13;;;6.13;;
7057;SDS011;3570;43.080;25.628;2022-11-20T15:16:17;11.87;;;7.33;;
7057;SDS011;3570;43.080;25.628;2022-11-20T15:19:03;9.97;;;6.63;;
7057;SDS011;3570;43.080;25.628;2022-11-20T15:22:02;11.13;;;7.50;;
7057;SDS011;3570;43.080;25.628;2022-11-20T15:24:46;14.27;;;8.00;;
7057;SDS011;3570;43.080;25.628;2022-11-20T15:27:30;12.00;;;7.40;;
7057;SDS011;3570;43.080;25.628;2022-11-20T15:30:15;12.83;;;8.10;;
7057;SDS011;3570;43.080;25.628;2022-11-20T15:33:01;15.80;;;10.03;;
7057;SDS011;3570;43.080;25.628;2022-11-20T15:35:45;19.87;;;11.20;;
7057;SDS011;3570;43.080;25.628;2022-11-20T15:38:29;19.07;;;10.97;;
7057;SDS011;3570;43.080;25.628;2022-11-20T15:41:13;17.67;;;11.07;;
7057;SDS011;3570;43.080;25.628;2022-11-20T15:43:57;15.60;;;8.80;;
7057;SDS011;3570;43.080;25.628;2022-11-20T15:46:41;16.63;;;10.07;;
7057;SDS011;3570;43.080;25.628;2022-11-20T15:49:28;18.93;;;11.07;;
7057;SDS011;3570;43.080;25.628;2022-11-20T15:52:12;23.27;;;12.00;;
7057;SDS011;3570;43.080;25.628;2022-11-20T15:54:57;21.77;;;12.27;;
7057;SDS011;3570;43.080;25.628;2022-11-20T15:57:41;22.13;;;11.93;;
7057;SDS011;3570;43.080;25.628;2022-11-20T16:00:25;22.50;;;12.97;;
7057;SDS011;3570;43.080;25.628;2022-11-20T16:03:13;19.43;;;12.40;;
7057;SDS011;3570;43.080;25.628;2022-11-20T16:05:58;21.03;;;11.13;;
7057;SDS011;3570;43.080;25.628;2022-11-20T16:08:42;24.43;;;12.67;;
7057;SDS011;3570;43.080;25.628;2022-11-20T16:11:26;19.13;;;10.97;;
7057;SDS011;3570;43.080;25.628;2022-11-20T16:14:10;17.87;;;10.40;;
7057;SDS011;3570;43.080;25.628;2022-11-20T16:17:13;15.57;;;10.90;;
7057;SDS011;3570;43.080;25.628;2022-11-20T16:19:57;15.67;;;9.37;;
7057;SDS011;3570;43.080;25.628;2022-11-20T16:22:41;15.83;;;9.70;;
7057;SDS011;3570;43.080;25.628;2022-11-20T16:25:26;21.57;;;11.90;;
7057;SDS011;3570;43.080;25.628;2022-11-20T16:28:11;21.07;;;12.67;;
7057;SDS011;3570;43.080;25.628;2022-11-20T16:30:55;19.50;;;11.17;;
7057;SDS011;3570;43.080;25.628;2022-11-20T16:33:40;24.27;;;13.43;;
7057;SDS011;3570;43.080;25.628;2022-11-20T16:36:25;22.00;;;12.90;;
7057;SDS011;3570;43.080;25.628;2022-11-20T16:39:11;20.60;;;12.00;;
7057;SDS011;3570;43.080;25.628;2022-11-20T16:41:55;22.50;;;12.10;;
7057;SDS011;3570;43.080;25.628;2022-11-20T16:44:39;21.03;;;13.10;;
7057;SDS011;3570;43.080;25.628;2022-11-20T16:47:23;15.67;;;10.57;;
7057;SDS011;3570;43.080;25.628;2022-11-20T16:50:07;16.53;;;10.33;;
7057;SDS011;3570;43.080;25.628;2022-11-20T16:52:51;16.43;;;9.63;;
7057;SDS011;3570;43.080;25.628;2022-11-20T16:55:35;15.03;;;8.57;;
7057;SDS011;3570;43.080;25.628;2022-11-20T16:58:19;16.97;;;10.03;;
7057;SDS011;3570;43.080;25.628;2022-11-20T17:01:07;22.07;;;12.10;;
7057;SDS011;3570;43.080;25.628;2022-11-20T17:03:54;16.93;;;11.27;;
7057;SDS011;3570;43.080;25.628;2022-11-20T17:06:40;21.67;;;12.83;;
7057;SDS011;3570;43.080;25.628;2022-11-20T17:09:26;26.00;;;14.77;;
7057;SDS011;3570;43.080;25.628;2022-11-20T17:12:11;22.27;;;13.37;;
7057;SDS011;3570;43.080;25.628;2022-11-20T17:14:55;19.93;;;12.87;;
7057;SDS011;3570;43.080;25.628;2022-11-20T17:17:39;21.40;;;13.20;;
7057;SDS011;3570;43.080;25.628;2022-11-20T17:20:23;20.73;;;11.90;;
7057;SDS011;3570;43.080;25.628;2022-11-20T17:23:07;22.83;;;12.40;;
7057;SDS011;3570;43.080;25.628;2022-11-20T17:25:51;20.40;;;12.17;;
7057;SDS011;3570;43.080;25.628;2022-11-20T17:28:35;19.93;;;12.87;;
7057;SDS011;3570;43.080;25.628;2022-11-20T17:31:20;23.90;;;13.53;;
7057;SDS011;3570;43.080;25.628;2022-11-20T17:34:05;17.83;;;10.50;;
7057;SDS011;3570;43.080;25.628;2022-11-20T17:36:50;19.70;;;12.13;;
7057;SDS011;3570;43.080;25.628;2022-11-20T17:39:34;21.00;;;12.87;;
7057;SDS011;3570;43.080;25.628;2022-11-20T17:42:18;27.90;;;17.20;;
7057;SDS011;3570;43.080;25.628;2022-11-20T17:45:12;20.53;;;13.30;;
7057;SDS011;3570;43.080;25.628;2022-11-20T17:47:56;19.03;;;13.10;;
7057;SDS011;3570;43.080;25.628;2022-11-20T17:50:40;15.77;;;11.17;;
7057;SDS011;3570;43.080;25.628;2022-11-20T17:53:23;16.37;;;10.10;;
7057;SDS011;3570;43.080;25.628;2022-11-20T17:56:08;14.40;;;9.50;;
7057;SDS011;3570;43.080;25.628;2022-11-20T17:59:12;21.37;;;13.80;;
7057;SDS011;3570;43.080;25.628;2022-11-20T18:01:56;16.93;;;11.73;;
7057;SDS011;3570;43.080;25.628;2022-11-20T18:04:40;15.63;;;10.03;;
7057;SDS011;3570;43.080;25.628;2022-11-20T18:07:24;16.13;;;11.00;;
7057;SDS011;3570;43.080;25.628;2022-11-20T18:10:08;16.57;;;10.97;;
7057;SDS011;3570;43.080;25.628;2022-11-20T18:12:52;21.33;;;12.50;;
7057;SDS011;3570;43.080;25.628;2022-11-20T18:15:36;18.67;;;12.33;;
7057;SDS011;3570;43.080;25.628;2022-11-20T18:18:20;23.37;;;12.53;;